Time;durP1;ratioP1;P1;durP2;ratioP2;P2;SDS_P1;SDS_P2;PMS_P1;PMS_P2;Temp;Humidity;BMP_temperature;BMP_pressure;BME280_temperature;BME280_humidity;BME280_pressure;Samples;Min_cycle;Max_cycle;Signal;HPM_P1;HPM_P2
2021/12/01 00:02:21;;;;;;;12.95;7.47;;;6.40;99.90;;;;;;12493600;28;20084;-40
2021/12/01 00:08:23;;;;;;;12.77;8.02;;;6.40;99.90;;;;;;12494477;28;20058;-39
2021/12/01 00:14:26;;;;;;;15.02;8.95;;;6.50;99.90;;;;;;12495101;28;20653;-38
2021/12/01 00:20:30;;;;;;;18.45;9.63;;;6.50;99.90;;;;;;12495389;28;20053;-38
2021/12/01 00:26:33;;;;;;;14.00;8.57;;;6.50;99.90;;;;;;12486687;28;20136;-38
2021/12/01 00:32:35;;;;;;;13.60;7.95;;;6.60;99.90;;;;;;12496733;28;20087;-38
2021/12/01 00:38:37;;;;;;;12.18;7.60;;;6.60;99.90;;;;;;12492800;28;20045;-38
2021/12/01 00:44:46;;;;;;;15.15;9.30;;;6.80;99.90;;;;;;12493569;28;20098;-39
2021/12/01 00:50:49;;;;;;;16.80;10.38;;;6.90;99.90;;;;;;12496369;28;20073;-38
2021/12/01 00:56:52;;;;;;;20.48;11.20;;;7.00;99.90;;;;;;12494503;28;20049;-39
2021/12/01 01:02:58;;;;;;;22.45;12.75;;;7.10;99.90;;;;;;12491946;28;20816;-40
2021/12/01 01:09:01;;;;;;;25.92;15.52;;;7.20;99.90;;;;;;12491339;28;20059;-38
2021/12/01 01:21:28;;;;;;;30.40;17.42;;;7.60;99.90;;;;;;12494461;28;20148;-38
2021/12/01 01:27:30;;;;;;;27.73;16.38;;;7.80;99.90;;;;;;12497270;28;20151;-38
2021/12/01 01:33:32;;;;;;;30.30;17.02;;;7.90;99.90;;;;;;12497733;28;20057;-41
2021/12/01 01:39:33;;;;;;;33.60;17.77;;;8.00;99.90;;;;;;12501427;28;20461;-39
2021/12/01 01:45:35;;;;;;;30.65;16.80;;;8.00;99.90;;;;;;12500734;28;20093;-39
2021/12/01 01:51:40;;;;;;;23.90;13.40;;;8.10;99.90;;;;;;12499404;28;20091;-40
2021/12/01 01:57:44;;;;;;;23.10;12.63;;;8.10;99.90;;;;;;12503000;28;20072;-40
2021/12/01 02:03:46;;;;;;;16.42;10.05;;;8.20;99.90;;;;;;12501644;28;20057;-40
2021/12/01 02:09:48;;;;;;;14.35;9.13;;;8.20;99.90;;;;;;12498224;28;20160;-39
2021/12/01 02:15:52;;;;;;;10.35;7.05;;;8.30;99.90;;;;;;12499941;28;20088;-39
2021/12/01 02:21:54;;;;;;;10.23;6.65;;;8.30;99.90;;;;;;12501971;28;20053;-38
2021/12/01 02:27:56;;;;;;;8.60;6.38;;;8.30;99.90;;;;;;12503388;28;20060;-40
2021/12/01 02:33:58;;;;;;;8.80;6.38;;;8.30;99.90;;;;;;12498080;28;20830;-40
2021/12/01 02:40:00;;;;;;;8.85;7.78;;;8.40;99.90;;;;;;12500011;28;20442;-40
2021/12/01 02:46:03;;;;;;;9.57;7.70;;;8.40;99.90;;;;;;12497758;28;20056;-40
2021/12/01 02:52:06;;;;;;;9.73;7.20;;;8.40;99.90;;;;;;12496380;28;20045;-39
2021/12/01 02:58:09;;;;;;;11.00;8.57;;;8.50;99.90;;;;;;12497950;28;20198;-39
2021/12/01 03:04:13;;;;;;;10.00;6.90;;;8.40;99.90;;;;;;12497464;28;20053;-38
2021/12/01 03:10:15;;;;;;;9.10;6.93;;;8.50;99.90;;;;;;12492625;28;20060;-39
2021/12/01 03:16:17;;;;;;;7.55;6.45;;;8.40;99.90;;;;;;12495815;28;20136;-38
2021/12/01 03:22:19;;;;;;;6.70;5.93;;;8.50;99.90;;;;;;12493140;28;20076;-39
2021/12/01 03:28:24;;;;;;;5.72;4.80;;;8.50;99.90;;;;;;12494159;28;20052;-38
2021/12/01 03:34:26;;;;;;;6.63;5.03;;;8.50;99.90;;;;;;12493681;28;20057;-39
2021/12/01 03:40:28;;;;;;;7.70;5.20;;;8.40;99.90;;;;;;12498645;28;21179;-39
2021/12/01 03:46:31;;;;;;;7.60;5.32;;;8.30;99.90;;;;;;12498183;28;20132;-38
2021/12/01 03:52:33;;;;;;;8.18;5.38;;;8.30;99.90;;;;;;12497405;28;20421;-39
2021/12/01 03:58:35;;;;;;;5.55;4.63;;;8.20;99.90;;;;;;12498237;28;20061;-38
2021/12/01 04:04:37;;;;;;;6.35;4.50;;;8.20;99.90;;;;;;12498009;28;20053;-38
2021/12/01 04:10:39;;;;;;;5.15;4.38;;;8.10;99.90;;;;;;12496531;28;20054;-38
2021/12/01 04:16:42;;;;;;;6.55;4.75;;;8.20;99.90;;;;;;12504291;28;20466;-41
2021/12/01 04:22:47;;;;;;;5.72;3.53;;;8.10;99.90;;;;;;12496274;28;20052;-38
2021/12/01 04:28:49;;;;;;;5.53;3.70;;;8.10;99.90;;;;;;12498984;28;20201;-38
2021/12/01 04:34:51;;;;;;;4.97;3.85;;;8.10;99.90;;;;;;12501215;28;20068;-39
2021/12/01 04:40:53;;;;;;;5.65;3.58;;;8.00;99.90;;;;;;12497973;28;20086;-38
2021/12/01 04:47:02;;;;;;;4.63;3.95;;;8.00;99.90;;;;;;12497759;28;20057;-38
2021/12/01 04:53:04;;;;;;;6.05;4.43;;;8.00;99.90;;;;;;12499812;28;20057;-39
2021/12/01 04:59:06;;;;;;;8.05;6.05;;;8.00;99.90;;;;;;12498177;28;20466;-40
2021/12/01 05:05:09;;;;;;;7.65;5.82;;;7.90;99.90;;;;;;12501216;28;20382;-39
2021/12/01 05:11:13;;;;;;;7.77;5.87;;;7.80;99.90;;;;;;12507655;28;20052;-39
2021/12/01 05:17:20;;;;;;;6.47;5.20;;;7.80;99.90;;;;;;12507415;28;20061;-38
2021/12/01 05:23:22;;;;;;;7.38;5.40;;;7.80;99.90;;;;;;12503171;28;20049;-39
2021/12/01 05:29:24;;;;;;;6.45;5.10;;;7.80;99.90;;;;;;12505660;28;20049;-40
2021/12/01 05:35:26;;;;;;;7.65;5.00;;;7.80;99.90;;;;;;12501159;28;20081;-39
2021/12/01 05:41:28;;;;;;;6.38;4.65;;;7.80;99.90;;;;;;12502269;28;20060;-39
2021/12/01 05:47:30;;;;;;;6.60;4.65;;;7.80;99.90;;;;;;12511644;28;20136;-39
2021/12/01 05:53:34;;;;;;;6.85;4.15;;;7.80;99.90;;;;;;12510109;28;20063;-40
2021/12/01 05:59:37;;;;;;;5.87;4.60;;;7.70;99.90;;;;;;12510130;28;20053;-39
2021/12/01 06:05:43;;;;;;;15.15;6.97;;;7.60;99.90;;;;;;12507040;28;20577;-40
2021/12/01 06:11:47;;;;;;;8.13;4.38;;;7.50;99.90;;;;;;12507190;28;20045;-39
2021/12/01 06:17:55;;;;;;;5.57;3.97;;;7.40;99.90;;;;;;12512339;28;20465;-39
2021/12/01 06:23:58;;;;;;;7.55;4.53;;;7.40;99.90;;;;;;12505515;28;20052;-38
2021/12/01 06:30:01;;;;;;;5.72;4.55;;;7.30;99.90;;;;;;12502529;28;20097;-40
2021/12/01 06:36:03;;;;;;;5.15;4.20;;;7.30;99.90;;;;;;12503513;28;20064;-38
2021/12/01 06:42:06;;;;;;;4.82;4.10;;;7.30;99.90;;;;;;12503655;28;20091;-39
2021/12/01 06:48:08;;;;;;;5.38;3.80;;;7.30;99.90;;;;;;12505905;28;20615;-40
2021/12/01 06:54:10;;;;;;;5.95;4.07;;;7.30;99.90;;;;;;12501674;28;20075;-38
2021/12/01 07:00:15;;;;;;;4.53;3.40;;;7.30;99.90;;;;;;12496258;28;20137;-38
2021/12/01 07:06:17;;;;;;;6.38;3.58;;;7.30;99.90;;;;;;12503005;28;20077;-39
2021/12/01 07:12:19;;;;;;;4.35;3.38;;;7.30;99.90;;;;;;12500592;28;20139;-39
2021/12/01 07:18:22;;;;;;;6.15;3.28;;;7.30;99.90;;;;;;12506420;28;20140;-39
2021/12/01 07:24:25;;;;;;;7.03;3.85;;;7.20;99.90;;;;;;12497741;28;20512;-38
2021/12/01 07:30:27;;;;;;;4.88;3.50;;;7.10;99.90;;;;;;12493559;28;20124;-39
2021/12/01 07:36:30;;;;;;;5.43;3.67;;;7.00;99.90;;;;;;12501811;28;20140;-38
2021/12/01 07:42:32;;;;;;;5.75;3.72;;;7.00;99.90;;;;;;12499490;28;20052;-38
2021/12/01 07:48:37;;;;;;;6.88;3.72;;;7.10;99.90;;;;;;12497951;28;20115;-38
2021/12/01 07:54:39;;;;;;;5.47;3.22;;;7.10;99.90;;;;;;12496480;28;20148;-38
2021/12/01 08:00:43;;;;;;;4.47;3.37;;;7.10;99.90;;;;;;12500347;28;20053;-38
2021/12/01 08:06:45;;;;;;;5.20;3.17;;;7.10;99.90;;;;;;12500625;28;20179;-39
2021/12/01 08:12:47;;;;;;;5.80;3.08;;;7.10;99.90;;;;;;12501132;28;20052;-38
2021/12/01 08:18:53;;;;;;;5.22;2.75;;;7.00;99.90;;;;;;12503147;28;20080;-38
2021/12/01 08:24:57;;;;;;;7.70;3.03;;;7.10;99.90;;;;;;12497589;28;20076;-40
2021/12/01 08:31:00;;;;;;;4.78;3.22;;;7.00;99.90;;;;;;12499332;28;20053;-38
2021/12/01 08:37:07;;;;;;;5.07;2.85;;;7.10;99.90;;;;;;12505459;28;20106;-38
2021/12/01 08:43:09;;;;;;;7.80;2.70;;;7.10;99.90;;;;;;12505925;28;20046;-39
2021/12/01 08:49:12;;;;;;;3.45;2.08;;;7.10;99.90;;;;;;12509341;28;20508;-39
2021/12/01 08:55:15;;;;;;;2.85;1.63;;;7.20;99.90;;;;;;12513926;28;20041;-38
2021/12/01 09:01:38;;;;;;;3.08;1.55;;;7.30;99.90;;;;;;12510188;28;20144;-39
2021/12/01 09:07:41;;;;;;;2.33;1.23;;;7.40;99.90;;;;;;12504992;28;20045;-38
2021/12/01 09:13:43;;;;;;;2.83;1.10;;;7.50;99.90;;;;;;12508073;28;20049;-38
2021/12/01 09:19:56;;;;;;;2.22;1.00;;;7.60;99.90;;;;;;12504672;28;20092;-39
2021/12/01 09:25:58;;;;;;;2.35;0.80;;;7.70;99.90;;;;;;12506720;28;20142;-40
2021/12/01 09:32:01;;;;;;;2.25;1.00;;;7.70;99.90;;;;;;12508392;28;20057;-38
2021/12/01 09:38:05;;;;;;;1.50;0.80;;;7.70;99.90;;;;;;12509502;28;20045;-39
2021/12/01 09:44:07;;;;;;;1.08;0.63;;;7.60;99.90;;;;;;12506477;28;20540;-39
2021/12/01 09:50:11;;;;;;;1.65;0.60;;;7.70;99.90;;;;;;12506481;28;20087;-39
2021/12/01 09:56:25;;;;;;;3.53;0.80;;;7.80;99.90;;;;;;12512304;28;21450;-38
2021/12/01 10:02:37;;;;;;;2.40;0.70;;;7.80;99.90;;;;;;12507513;28;20069;-40
2021/12/01 10:09:00;;;;;;;2.40;0.90;;;7.80;99.90;;;;;;12518518;28;20594;-39
2021/12/01 10:15:14;;;;;;;2.88;0.80;;;7.80;99.90;;;;;;12515031;28;20080;-39
2021/12/01 10:21:38;;;;;;;0.73;0.60;;;7.80;99.90;;;;;;12529137;28;20052;-38
2021/12/01 10:28:01;;;;;;;3.42;0.90;;;7.80;99.90;;;;;;12517515;28;20052;-39
2021/12/01 10:34:23;;;;;;;1.88;0.90;;;7.80;99.90;;;;;;12521183;28;20049;-39
2021/12/01 10:40:37;;;;;;;2.80;1.00;;;8.00;99.90;;;;;;12508696;28;20098;-39
2021/12/01 10:46:53;;;;;;;2.00;0.80;;;7.90;99.90;;;;;;12510899;28;20071;-39
2021/12/01 10:53:14;;;;;;;3.17;0.70;;;7.80;99.90;;;;;;12511510;28;20480;-39
2021/12/01 10:59:24;;;;;;;1.60;0.80;;;7.80;99.90;;;;;;12513205;28;20041;-39
2021/12/01 11:05:40;;;;;;;1.25;0.70;;;7.80;99.90;;;;;;12508444;28;20045;-40
2021/12/01 11:11:52;;;;;;;1.95;0.80;;;7.80;99.90;;;;;;12500364;28;20064;-39
2021/12/01 11:18:06;;;;;;;0.88;0.60;;;7.80;99.90;;;;;;12505910;28;20061;-40
2021/12/01 11:24:25;;;;;;;1.45;0.93;;;7.90;99.90;;;;;;12455801;28;20049;-39
2021/12/01 11:30:40;;;;;;;1.25;0.60;;;7.90;99.90;;;;;;12471377;28;20507;-39
2021/12/01 11:36:58;;;;;;;0.65;0.50;;;8.10;99.90;;;;;;12465952;28;20080;-39
2021/12/01 11:43:10;;;;;;;3.30;1.00;;;8.10;99.90;;;;;;12472054;28;20053;-39
2021/12/01 11:49:21;;;;;;;1.70;1.10;;;8.10;99.90;;;;;;12474689;28;20094;-39
2021/12/01 11:55:56;;;;;;;1.38;1.10;;;8.10;99.90;;;;;;12473507;28;20053;-39
2021/12/01 12:02:22;;;;;;;2.33;0.70;;;8.20;99.90;;;;;;12479393;28;20046;-39
2021/12/01 12:08:59;;;;;;;2.65;1.00;;;8.10;99.90;;;;;;12476623;28;20050;-40
2021/12/01 12:15:10;;;;;;;1.88;1.35;;;8.00;99.90;;;;;;12467843;28;20516;-39
2021/12/01 12:21:25;;;;;;;4.45;1.70;;;7.90;99.90;;;;;;12449911;28;20470;-40
2021/12/01 12:27:39;;;;;;;2.10;1.10;;;7.90;99.90;;;;;;12446862;28;20054;-39
2021/12/01 12:33:50;;;;;;;1.70;1.05;;;8.00;99.90;;;;;;12436128;28;20588;-38
2021/12/01 12:39:53;;;;;;;2.70;1.20;;;8.00;99.90;;;;;;12447204;28;20073;-39
2021/12/01 12:46:11;;;;;;;1.55;0.90;;;8.10;99.90;;;;;;12450214;28;20671;-37
2021/12/01 12:52:34;;;;;;;1.98;0.93;;;8.10;99.90;;;;;;12447738;28;20050;-38
2021/12/01 12:58:40;;;;;;;1.77;0.90;;;8.20;99.90;;;;;;12450688;28;20061;-37
2021/12/01 13:04:54;;;;;;;1.43;0.70;;;8.10;99.90;;;;;;12454033;28;20136;-39
2021/12/01 13:11:08;;;;;;;2.40;0.90;;;8.10;99.90;;;;;;12450858;28;20398;-39
2021/12/01 13:17:10;;;;;;;5.65;0.88;;;8.10;99.90;;;;;;12450925;28;20049;-38
2021/12/01 13:23:14;;;;;;;3.20;0.80;;;8.20;99.90;;;;;;12491494;28;20465;-37
2021/12/01 13:29:18;;;;;;;3.97;0.70;;;8.20;99.90;;;;;;12509424;28;20045;-38
2021/12/01 13:35:37;;;;;;;4.38;0.82;;;8.20;99.90;;;;;;12507957;28;20077;-38
2021/12/01 13:41:52;;;;;;;1.70;0.65;;;8.20;99.90;;;;;;12508886;28;20045;-38
2021/12/01 13:47:55;;;;;;;2.72;0.85;;;8.20;99.90;;;;;;12506379;28;20046;-39
2021/12/01 13:53:58;;;;;;;2.45;0.80;;;8.20;99.90;;;;;;12514700;28;20053;-39
2021/12/01 14:00:04;;;;;;;4.30;0.73;;;8.20;99.90;;;;;;12517156;28;20057;-38
2021/12/01 14:06:15;;;;;;;4.13;0.70;;;8.20;99.90;;;;;;12520007;28;20056;-39
2021/12/01 14:13:07;;;;;;;1.38;0.50;;;8.10;99.90;;;;;;12507288;28;20084;-39
2021/12/01 14:19:09;;;;;;;3.15;1.08;;;7.90;99.90;;;;;;12498903;28;20088;-38
2021/12/01 14:25:13;;;;;;;5.40;1.05;;;7.70;99.90;;;;;;12499100;28;20140;-38
2021/12/01 14:31:19;;;;;;;1.95;0.80;;;7.60;99.90;;;;;;12503958;28;20084;-39
2021/12/01 14:37:24;;;;;;;5.13;1.10;;;7.50;99.90;;;;;;12501868;28;20535;-39
2021/12/01 14:43:32;;;;;;;5.32;1.23;;;7.50;99.90;;;;;;12504798;28;20386;-37
2021/12/01 14:49:37;;;;;;;5.18;0.85;;;7.50;99.90;;;;;;12501073;28;20045;-39
2021/12/01 14:55:44;;;;;;;5.57;0.90;;;7.40;99.90;;;;;;12505923;28;20049;-38
2021/12/01 15:02:07;;;;;;;4.68;1.05;;;7.40;99.90;;;;;;12501288;28;20045;-38
2021/12/01 15:08:13;;;;;;;6.47;1.30;;;7.40;99.90;;;;;;12499417;28;20107;-37
2021/12/01 15:14:33;;;;;;;5.45;1.00;;;7.50;99.90;;;;;;12500793;28;20061;-39
2021/12/01 15:20:57;;;;;;;5.63;1.30;;;7.60;99.90;;;;;;12505862;28;20045;-38
2021/12/01 15:27:01;;;;;;;3.88;1.05;;;7.60;99.90;;;;;;12505660;28;20569;-38
2021/12/01 15:33:14;;;;;;;2.78;0.85;;;7.60;99.90;;;;;;12507920;28;20046;-38
2021/12/01 15:39:25;;;;;;;4.68;1.00;;;7.70;99.90;;;;;;12502958;28;20107;-38
2021/12/01 15:45:34;;;;;;;4.78;1.42;;;7.70;99.90;;;;;;12493700;28;20049;-38
2021/12/01 15:51:36;;;;;;;6.38;1.17;;;7.80;99.90;;;;;;12497829;28;20098;-37
2021/12/01 15:57:38;;;;;;;9.57;1.70;;;7.80;99.90;;;;;;12496662;28;20160;-38
2021/12/01 16:03:41;;;;;;;5.55;1.50;;;7.60;99.90;;;;;;12493626;28;20049;-37
2021/12/01 16:09:44;;;;;;;8.07;1.38;;;7.40;99.90;;;;;;12505075;28;20077;-38
2021/12/01 16:15:53;;;;;;;5.03;1.13;;;7.30;99.90;;;;;;12495762;28;20118;-37
2021/12/01 16:21:59;;;;;;;7.53;1.48;;;7.00;99.90;;;;;;12522093;28;20048;-38
2021/12/01 16:28:01;;;;;;;3.10;0.75;;;6.80;99.90;;;;;;12505753;28;20061;-38
2021/12/01 16:34:03;;;;;;;5.72;0.95;;;6.50;99.90;;;;;;12493334;28;20053;-39
2021/12/01 16:40:06;;;;;;;3.80;1.00;;;6.40;99.90;;;;;;12492945;28;20099;-37
2021/12/01 16:46:09;;;;;;;5.47;1.17;;;6.40;99.90;;;;;;12490140;28;20092;-39
2021/12/01 16:52:12;;;;;;;5.15;0.63;;;6.50;99.90;;;;;;12491172;28;20541;-40
2021/12/01 16:58:15;;;;;;;6.03;1.27;;;6.60;99.90;;;;;;12498344;28;20099;-38
2021/12/01 17:04:26;;;;;;;4.82;1.02;;;6.60;99.90;;;;;;12502368;28;20099;-38
2021/12/01 17:10:29;;;;;;;3.13;0.70;;;6.70;99.90;;;;;;12500389;28;20195;-38
2021/12/01 17:16:32;;;;;;;4.85;0.93;;;6.60;99.90;;;;;;12508274;28;20053;-39
2021/12/01 17:22:37;;;;;;;10.35;1.52;;;6.40;99.90;;;;;;12504032;28;21335;-38
2021/12/01 17:28:41;;;;;;;6.07;1.20;;;6.30;99.90;;;;;;12501879;28;20642;-39
2021/12/01 17:34:45;;;;;;;9.57;2.80;;;6.20;99.90;;;;;;12501260;28;20049;-39
2021/12/01 17:40:47;;;;;;;12.27;1.30;;;6.30;99.90;;;;;;12494159;28;20314;-38
2021/12/01 17:46:49;;;;;;;8.35;1.00;;;6.10;99.90;;;;;;12497520;28;20102;-38
2021/12/01 17:52:51;;;;;;;7.32;1.38;;;6.20;99.90;;;;;;12495008;28;20126;-39
2021/12/01 17:58:54;;;;;;;8.27;1.25;;;6.10;99.90;;;;;;12499768;28;20538;-37
2021/12/01 18:04:56;;;;;;;6.18;1.10;;;6.10;99.90;;;;;;12496905;28;20164;-39
2021/12/01 18:10:58;;;;;;;6.00;1.15;;;6.10;99.90;;;;;;12495976;28;20094;-38
2021/12/01 18:17:01;;;;;;;9.52;0.82;;;6.10;99.90;;;;;;12498410;28;20079;-38
2021/12/01 18:23:04;;;;;;;10.07;1.08;;;6.10;99.90;;;;;;12499587;28;20558;-38
2021/12/01 18:29:10;;;;;;;7.35;1.63;;;6.10;99.90;;;;;;12499811;28;20045;-38
2021/12/01 18:35:12;;;;;;;5.88;1.40;;;6.00;99.90;;;;;;12496509;28;20248;-39
2021/12/01 18:41:15;;;;;;;9.52;1.42;;;6.00;99.90;;;;;;12493355;28;20490;-39
2021/12/01 18:47:17;;;;;;;9.82;1.48;;;5.80;99.90;;;;;;12497197;28;20478;-38
2021/12/01 18:53:19;;;;;;;9.25;2.08;;;5.70;99.90;;;;;;12490802;28;20398;-38
2021/12/01 18:59:21;;;;;;;11.68;1.50;;;5.60;99.90;;;;;;12491051;28;20049;-38
2021/12/01 19:05:24;;;;;;;6.63;1.20;;;5.70;99.90;;;;;;12497137;28;20045;-38
2021/12/01 19:11:26;;;;;;;11.98;1.60;;;5.70;99.90;;;;;;12496892;28;20075;-38
2021/12/01 19:17:28;;;;;;;5.50;1.02;;;5.70;99.90;;;;;;12495061;28;20080;-37
2021/12/01 19:23:32;;;;;;;7.60;1.40;;;5.70;99.90;;;;;;12501747;28;20048;-38
2021/12/01 19:29:34;;;;;;;8.03;1.33;;;5.60;99.90;;;;;;12499382;28;20046;-38
2021/12/01 19:35:35;;;;;;;9.02;1.35;;;5.50;99.90;;;;;;12492556;28;20145;-38
2021/12/01 19:41:39;;;;;;;17.13;1.35;;;5.50;99.90;;;;;;12493020;28;20057;-38
2021/12/01 19:47:44;;;;;;;6.68;1.13;;;5.50;99.90;;;;;;12496390;28;20068;-38
2021/12/01 19:53:47;;;;;;;11.63;1.63;;;5.50;99.90;;;;;;12491123;28;20049;-39
2021/12/01 19:59:49;;;;;;;6.32;1.20;;;5.50;99.90;;;;;;12497607;28;20110;-39
2021/12/01 20:05:52;;;;;;;8.60;1.63;;;5.60;99.90;;;;;;12493837;28;20531;-38
2021/12/01 20:12:00;;;;;;;8.95;1.17;;;5.60;99.90;;;;;;12489533;28;20925;-38
2021/12/01 20:18:03;;;;;;;8.32;1.10;;;5.60;99.90;;;;;;12492806;28;20073;-38
2021/12/01 20:24:10;;;;;;;8.25;1.77;;;5.60;99.90;;;;;;12489654;28;20053;-38
2021/12/01 20:30:13;;;;;;;6.55;1.35;;;5.60;99.90;;;;;;12493794;28;20053;-39
2021/12/01 20:36:16;;;;;;;11.45;1.75;;;5.50;99.90;;;;;;12494928;28;20053;-38
2021/12/01 20:42:23;;;;;;;9.52;1.30;;;5.40;99.90;;;;;;12492552;28;20053;-39
2021/12/01 21:06:54;;;;;;;12.13;1.48;;;5.40;99.90;;;;;;12502365;28;20148;-38
2021/12/01 21:12:58;;;;;;;9.18;1.23;;;5.40;99.90;;;;;;12496660;28;20053;-38
2021/12/01 21:19:00;;;;;;;;;;;5.40;99.90;;;;;;12494804;28;20099;-39
2021/12/01 21:25:04;;;;;;;5.78;1.13;;;5.40;99.90;;;;;;12489218;28;19929;-39
2021/12/01 21:31:11;;;;;;;9.68;0.95;;;5.40;99.90;;;;;;12492261;28;20075;-38
2021/12/01 21:37:13;;;;;;;7.97;1.00;;;5.40;99.90;;;;;;12495681;28;20152;-38
2021/12/01 21:43:15;;;;;;;5.03;1.00;;;5.40;99.90;;;;;;12494190;28;20037;-39
2021/12/01 21:49:18;;;;;;;7.93;1.33;;;5.30;99.90;;;;;;12504830;28;20569;-38
2021/12/01 21:55:20;;;;;;;7.05;1.20;;;5.40;99.90;;;;;;12501546;28;20493;-38
2021/12/01 22:01:22;;;;;;;7.50;0.93;;;5.30;99.90;;;;;;12507393;28;20528;-38
2021/12/01 22:07:25;;;;;;;4.25;0.90;;;5.20;99.90;;;;;;12501337;28;20908;-37
2021/12/01 22:13:27;;;;;;;6.82;1.40;;;5.20;99.90;;;;;;12501184;28;20098;-39
2021/12/01 22:19:29;;;;;;;4.95;0.80;;;5.20;99.90;;;;;;12502234;28;20767;-38
2021/12/01 22:25:32;;;;;;;9.02;1.13;;;5.10;99.90;;;;;;12497479;28;20048;-39
2021/12/01 22:31:35;;;;;;;6.93;0.75;;;5.10;99.90;;;;;;12501362;28;20098;-38
2021/12/01 22:37:40;;;;;;;11.65;0.95;;;5.10;99.90;;;;;;12499198;28;20516;-38
2021/12/01 22:43:42;;;;;;;7.90;0.93;;;5.00;99.90;;;;;;12494029;28;20049;-39
2021/12/01 22:49:46;;;;;;;7.10;0.98;;;5.00;99.90;;;;;;12496822;28;20064;-38
2021/12/01 22:56:02;;;;;;;3.88;0.88;;;4.90;99.90;;;;;;12497193;28;20965;-39
2021/12/01 23:02:12;;;;;;;3.63;0.70;;;4.90;99.90;;;;;;12500393;28;20548;-37
2021/12/01 23:08:16;;;;;;;5.00;1.00;;;4.80;99.90;;;;;;12494508;28;20083;-39
2021/12/01 23:14:18;;;;;;;5.72;0.98;;;4.80;99.90;;;;;;12497660;28;20088;-38
2021/12/01 23:20:21;;;;;;;5.70;0.90;;;4.80;99.90;;;;;;12492568;28;20072;-39
2021/12/01 23:33:02;;;;;;;4.25;1.35;;;4.80;99.90;;;;;;12492205;28;20316;-39
2021/12/01 23:39:10;;;;;;;7.25;0.95;;;4.60;99.90;;;;;;12480469;28;20057;-38
2021/12/01 23:45:51;;;;;;;4.60;0.80;;;4.40;99.90;;;;;;12486263;28;20106;-37
2021/12/01 23:51:37;;;;;;;4.57;0.80;;;4.50;99.90;;;;;;12491305;28;20114;-39
2021/12/01 23:57:39;;;;;;;6.38;1.10;;;4.50;99.90;;;;;;12492239;28;20132;-37
